Pagrindinis puslapis
METAR-TAF:

METAR-TAF

Oro uostai :

Lokarnas, Šveicarija

platuma: 46-09-55N, ilguma: 8-52-40E, Aukštis: 198 m

Dabartinis oras

Ataskaita buvo paskelbta 17 minutes, ne 18:50 UTC
Vėjas 2 kt nuo kintamojo kryptimis
Temperatūra 19°C
Drėgmė 64%
Slėgis 1014 hPa
Matomumas 10 km arba daugiau
Mažai debesys ne aukštis 8500 ft
Su prošvaistėmis ne aukštis 12000 ft

METAR: LSZL 301850Z AUTO VRB02KT 9999NDV FEW085 BKN120 19/12 Q1014 RMK

Laikas: 21:07 (19:07 UTC)

Prognozė

Ataskaita buvo paskelbta 25 valandos ir 42 minutes, ne 17:25 UTC
Prognozė galioja nuo 29 metu 18 UTC su 30 metu 03 UTC
Vėjas 3 kt nuo kintamojo kryptimis
Matomumas 10 km arba daugiau
Mažai debesys ne aukštis 6000 ft

TAF: LSZL 291725Z 2918/3003 VRB03KT 9999 FEW060

Orai ataskaitas ir orų prognozės (METAR, TAF).

turimą stotys yra geltonos ir raudonos taškus žemėlapyje.

Perkelti pele per norėdami pamatyti stoties vardą.

Tada spustelėkite, norėdami matyti oro stebėjimo ir prognozės.

Norėdami pakeisti žemėlapį: spustelėkite ant žalios mygtukų su juodo kryžiaus žemyn,; žalią mygtuką su brūkšneliu, jei norite nutolinti; arba žalių rodyklių gretimoms žemėlapius.


METAR-TAF: